sensor_id;sensor_type;location;lat;lon;timestamp;P1;durP1;ratioP1;P2;durP2;ratioP2
41885;SDS011;27567;43.084;25.616;2022-08-21T00:01:32;12.88;;;7.53;;
41885;SDS011;27567;43.084;25.616;2022-08-21T00:04:16;14.38;;;6.88;;
41885;SDS011;27567;43.084;25.616;2022-08-21T00:07:00;15.40;;;8.68;;
41885;SDS011;27567;43.084;25.616;2022-08-21T00:09:45;16.00;;;7.82;;
41885;SDS011;27567;43.084;25.616;2022-08-21T00:12:29;16.55;;;9.15;;
41885;SDS011;27567;43.084;25.616;2022-08-21T00:15:16;15.15;;;9.13;;
41885;SDS011;27567;43.084;25.616;2022-08-21T00:18:03;13.07;;;8.77;;
41885;SDS011;27567;43.084;25.616;2022-08-21T00:20:48;14.13;;;9.20;;
41885;SDS011;27567;43.084;25.616;2022-08-21T00:23:33;15.15;;;7.18;;
41885;SDS011;27567;43.084;25.616;2022-08-21T00:26:18;15.52;;;7.80;;
41885;SDS011;27567;43.084;25.616;2022-08-21T00:29:01;15.25;;;7.85;;
41885;SDS011;27567;43.084;25.616;2022-08-21T00:31:47;13.35;;;7.32;;
41885;SDS011;27567;43.084;25.616;2022-08-21T00:34:30;11.85;;;7.60;;
41885;SDS011;27567;43.084;25.616;2022-08-21T00:37:14;13.23;;;8.48;;
41885;SDS011;27567;43.084;25.616;2022-08-21T00:39:58;16.67;;;8.13;;
41885;SDS011;27567;43.084;25.616;2022-08-21T00:42:42;17.52;;;9.77;;
41885;SDS011;27567;43.084;25.616;2022-08-21T00:45:27;19.50;;;10.65;;
41885;SDS011;27567;43.084;25.616;2022-08-21T00:48:11;19.45;;;11.00;;
41885;SDS011;27567;43.084;25.616;2022-08-21T00:50:57;17.90;;;11.02;;
41885;SDS011;27567;43.084;25.616;2022-08-21T00:53:42;17.08;;;10.70;;
41885;SDS011;27567;43.084;25.616;2022-08-21T00:56:28;18.38;;;11.45;;
41885;SDS011;27567;43.084;25.616;2022-08-21T00:59:12;20.50;;;12.80;;
41885;SDS011;27567;43.084;25.616;2022-08-21T01:01:57;20.80;;;12.63;;
41885;SDS011;27567;43.084;25.616;2022-08-21T01:04:41;19.65;;;12.35;;
41885;SDS011;27567;43.084;25.616;2022-08-21T01:07:25;23.00;;;12.68;;
41885;SDS011;27567;43.084;25.616;2022-08-21T01:10:09;18.42;;;12.43;;
41885;SDS011;27567;43.084;25.616;2022-08-21T01:12:53;14.90;;;11.23;;
41885;SDS011;27567;43.084;25.616;2022-08-21T01:15:40;15.15;;;11.25;;
41885;SDS011;27567;43.084;25.616;2022-08-21T01:18:27;16.90;;;11.00;;
41885;SDS011;27567;43.084;25.616;2022-08-21T01:21:14;17.70;;;11.30;;
41885;SDS011;27567;43.084;25.616;2022-08-21T01:24:00;14.18;;;11.25;;
41885;SDS011;27567;43.084;25.616;2022-08-21T01:26:44;18.33;;;11.02;;
41885;SDS011;27567;43.084;25.616;2022-08-21T01:30:13;18.52;;;12.38;;
41885;SDS011;27567;43.084;25.616;2022-08-21T01:32:41;18.35;;;12.50;;
41885;SDS011;27567;43.084;25.616;2022-08-21T01:35:25;19.85;;;13.15;;
41885;SDS011;27567;43.084;25.616;2022-08-21T01:38:09;21.13;;;12.63;;
41885;SDS011;27567;43.084;25.616;2022-08-21T01:40:53;24.85;;;15.48;;
41885;SDS011;27567;43.084;25.616;2022-08-21T01:43:37;28.40;;;16.50;;
41885;SDS011;27567;43.084;25.616;2022-08-21T01:46:21;22.30;;;14.82;;
41885;SDS011;27567;43.084;25.616;2022-08-21T01:49:06;23.17;;;13.20;;
41885;SDS011;27567;43.084;25.616;2022-08-21T01:51:50;19.10;;;11.98;;
41885;SDS011;27567;43.084;25.616;2022-08-21T01:54:35;21.55;;;12.10;;
41885;SDS011;27567;43.084;25.616;2022-08-21T01:57:20;15.20;;;10.00;;
41885;SDS011;27567;43.084;25.616;2022-08-21T02:00:08;16.02;;;9.45;;
41885;SDS011;27567;43.084;25.616;2022-08-21T02:02:54;16.92;;;9.07;;
41885;SDS011;27567;43.084;25.616;2022-08-21T02:05:39;11.98;;;8.40;;
41885;SDS011;27567;43.084;25.616;2022-08-21T02:08:23;14.20;;;7.78;;
41885;SDS011;27567;43.084;25.616;2022-08-21T02:11:07;12.82;;;8.45;;
41885;SDS011;27567;43.084;25.616;2022-08-21T02:13:51;15.60;;;10.35;;
41885;SDS011;27567;43.084;25.616;2022-08-21T02:16:35;21.08;;;11.15;;
41885;SDS011;27567;43.084;25.616;2022-08-21T02:19:19;13.63;;;10.13;;
41885;SDS011;27567;43.084;25.616;2022-08-21T02:22:03;12.10;;;8.73;;
41885;SDS011;27567;43.084;25.616;2022-08-21T02:24:47;19.33;;;10.45;;
41885;SDS011;27567;43.084;25.616;2022-08-21T02:27:36;13.07;;;9.10;;
41885;SDS011;27567;43.084;25.616;2022-08-21T02:30:27;15.35;;;8.73;;
41885;SDS011;27567;43.084;25.616;2022-08-21T02:33:13;13.88;;;8.40;;
41885;SDS011;27567;43.084;25.616;2022-08-21T02:35:58;10.63;;;8.80;;
41885;SDS011;27567;43.084;25.616;2022-08-21T02:38:42;14.98;;;8.10;;
41885;SDS011;27567;43.084;25.616;2022-08-21T02:41:27;12.63;;;7.28;;
41885;SDS011;27567;43.084;25.616;2022-08-21T02:44:11;11.55;;;7.80;;
41885;SDS011;27567;43.084;25.616;2022-08-21T02:46:55;16.08;;;7.95;;
41885;SDS011;27567;43.084;25.616;2022-08-21T02:49:39;14.85;;;8.90;;
41885;SDS011;27567;43.084;25.616;2022-08-21T02:52:23;11.88;;;7.53;;
41885;SDS011;27567;43.084;25.616;2022-08-21T02:55:07;13.57;;;7.35;;
41885;SDS011;27567;43.084;25.616;2022-08-21T02:57:51;15.73;;;8.45;;
41885;SDS011;27567;43.084;25.616;2022-08-21T03:00:37;12.98;;;8.50;;
41885;SDS011;27567;43.084;25.616;2022-08-21T03:03:21;14.32;;;9.10;;
41885;SDS011;27567;43.084;25.616;2022-08-21T03:06:06;15.55;;;9.07;;
41885;SDS011;27567;43.084;25.616;2022-08-21T03:08:52;15.30;;;8.32;;
41885;SDS011;27567;43.084;25.616;2022-08-21T03:11:36;10.27;;;7.95;;
41885;SDS011;27567;43.084;25.616;2022-08-21T03:14:20;13.00;;;8.65;;
41885;SDS011;27567;43.084;25.616;2022-08-21T03:17:04;12.15;;;7.63;;
41885;SDS011;27567;43.084;25.616;2022-08-21T03:19:48;16.15;;;7.65;;
41885;SDS011;27567;43.084;25.616;2022-08-21T03:22:32;14.52;;;8.52;;
41885;SDS011;27567;43.084;25.616;2022-08-21T03:25:17;11.70;;;7.00;;
41885;SDS011;27567;43.084;25.616;2022-08-21T03:28:03;16.38;;;7.22;;
41885;SDS011;27567;43.084;25.616;2022-08-21T03:30:49;15.75;;;8.30;;
41885;SDS011;27567;43.084;25.616;2022-08-21T03:33:35;19.27;;;7.55;;
41885;SDS011;27567;43.084;25.616;2022-08-21T03:36:18;12.75;;;7.60;;
41885;SDS011;27567;43.084;25.616;2022-08-21T03:39:02;13.75;;;9.02;;
41885;SDS011;27567;43.084;25.616;2022-08-21T03:41:47;15.52;;;8.95;;
41885;SDS011;27567;43.084;25.616;2022-08-21T03:44:31;13.65;;;9.70;;
41885;SDS011;27567;43.084;25.616;2022-08-21T03:47:14;12.63;;;9.85;;
41885;SDS011;27567;43.084;25.616;2022-08-21T03:49:59;13.88;;;11.15;;
41885;SDS011;27567;43.084;25.616;2022-08-21T03:52:43;17.42;;;12.18;;
41885;SDS011;27567;43.084;25.616;2022-08-21T03:55:28;23.70;;;12.90;;
41885;SDS011;27567;43.084;25.616;2022-08-21T03:58:13;16.10;;;12.18;;
41885;SDS011;27567;43.084;25.616;2022-08-21T04:00:59;21.08;;;12.93;;
41885;SDS011;27567;43.084;25.616;2022-08-21T04:03:44;25.95;;;13.68;;
41885;SDS011;27567;43.084;25.616;2022-08-21T04:06:27;16.40;;;13.50;;
41885;SDS011;27567;43.084;25.616;2022-08-21T04:09:11;18.05;;;12.25;;
41885;SDS011;27567;43.084;25.616;2022-08-21T04:11:56;17.80;;;12.38;;
41885;SDS011;27567;43.084;25.616;2022-08-21T04:14:40;16.85;;;11.90;;
41885;SDS011;27567;43.084;25.616;2022-08-21T04:17:25;14.90;;;10.95;;
41885;SDS011;27567;43.084;25.616;2022-08-21T04:20:10;19.17;;;11.43;;
41885;SDS011;27567;43.084;25.616;2022-08-21T04:22:54;14.60;;;9.90;;
41885;SDS011;27567;43.084;25.616;2022-08-21T04:25:38;14.32;;;10.07;;
41885;SDS011;27567;43.084;25.616;2022-08-21T04:28:23;13.30;;;10.02;;
41885;SDS011;27567;43.084;25.616;2022-08-21T04:31:08;17.73;;;10.70;;
41885;SDS011;27567;43.084;25.616;2022-08-21T04:33:52;16.25;;;10.43;;
41885;SDS011;27567;43.084;25.616;2022-08-21T04:36:36;16.10;;;10.98;;
41885;SDS011;27567;43.084;25.616;2022-08-21T04:39:20;15.82;;;11.32;;
41885;SDS011;27567;43.084;25.616;2022-08-21T04:42:04;18.13;;;10.48;;
41885;SDS011;27567;43.084;25.616;2022-08-21T04:44:51;16.02;;;10.35;;
41885;SDS011;27567;43.084;25.616;2022-08-21T04:47:35;14.02;;;11.07;;
41885;SDS011;27567;43.084;25.616;2022-08-21T04:50:20;20.00;;;11.38;;
41885;SDS011;27567;43.084;25.616;2022-08-21T04:53:09;12.02;;;10.25;;
41885;SDS011;27567;43.084;25.616;2022-08-21T04:55:55;14.75;;;11.07;;
41885;SDS011;27567;43.084;25.616;2022-08-21T04:58:44;18.27;;;11.98;;
41885;SDS011;27567;43.084;25.616;2022-08-21T05:01:28;25.63;;;12.30;;
41885;SDS011;27567;43.084;25.616;2022-08-21T05:04:16;14.85;;;12.07;;
41885;SDS011;27567;43.084;25.616;2022-08-21T05:07:05;22.77;;;12.32;;
41885;SDS011;27567;43.084;25.616;2022-08-21T05:09:54;18.17;;;12.52;;
41885;SDS011;27567;43.084;25.616;2022-08-21T05:12:37;18.63;;;13.00;;
41885;SDS011;27567;43.084;25.616;2022-08-21T05:15:22;19.20;;;12.57;;
41885;SDS011;27567;43.084;25.616;2022-08-21T05:18:06;20.23;;;12.77;;
41885;SDS011;27567;43.084;25.616;2022-08-21T05:20:51;21.98;;;12.63;;
41885;SDS011;27567;43.084;25.616;2022-08-21T05:23:35;18.73;;;12.20;;
41885;SDS011;27567;43.084;25.616;2022-08-21T05:26:20;18.40;;;13.48;;
41885;SDS011;27567;43.084;25.616;2022-08-21T05:29:04;19.23;;;12.40;;
41885;SDS011;27567;43.084;25.616;2022-08-21T05:31:48;18.80;;;13.18;;
41885;SDS011;27567;43.084;25.616;2022-08-21T05:34:33;13.90;;;11.60;;
41885;SDS011;27567;43.084;25.616;2022-08-21T05:37:17;18.45;;;11.75;;
41885;SDS011;27567;43.084;25.616;2022-08-21T05:40:01;19.25;;;12.80;;
41885;SDS011;27567;43.084;25.616;2022-08-21T05:42:47;17.00;;;12.20;;
41885;SDS011;27567;43.084;25.616;2022-08-21T05:45:32;13.80;;;11.75;;
41885;SDS011;27567;43.084;25.616;2022-08-21T05:48:18;15.52;;;10.48;;
41885;SDS011;27567;43.084;25.616;2022-08-21T05:51:08;19.55;;;11.52;;
41885;SDS011;27567;43.084;25.616;2022-08-21T05:53:54;15.05;;;10.30;;
41885;SDS011;27567;43.084;25.616;2022-08-21T05:56:38;16.80;;;9.43;;
41885;SDS011;27567;43.084;25.616;2022-08-21T05:59:22;13.75;;;8.52;;
41885;SDS011;27567;43.084;25.616;2022-08-21T06:02:06;16.45;;;9.90;;
41885;SDS011;27567;43.084;25.616;2022-08-21T06:04:51;15.00;;;8.57;;
41885;SDS011;27567;43.084;25.616;2022-08-21T06:07:35;16.38;;;9.23;;
41885;SDS011;27567;43.084;25.616;2022-08-21T06:10:19;14.93;;;9.63;;
41885;SDS011;27567;43.084;25.616;2022-08-21T06:13:04;11.45;;;9.70;;
41885;SDS011;27567;43.084;25.616;2022-08-21T06:15:49;17.13;;;10.68;;
41885;SDS011;27567;43.084;25.616;2022-08-21T06:18:44;15.85;;;9.27;;
41885;SDS011;27567;43.084;25.616;2022-08-21T06:21:29;15.15;;;8.88;;
41885;SDS011;27567;43.084;25.616;2022-08-21T06:24:13;16.15;;;9.48;;
41885;SDS011;27567;43.084;25.616;2022-08-21T06:26:56;16.73;;;11.20;;
41885;SDS011;27567;43.084;25.616;2022-08-21T06:29:40;15.73;;;10.48;;
41885;SDS011;27567;43.084;25.616;2022-08-21T06:32:24;12.85;;;10.07;;
41885;SDS011;27567;43.084;25.616;2022-08-21T06:35:09;15.52;;;10.50;;
41885;SDS011;27567;43.084;25.616;2022-08-21T06:37:53;14.70;;;9.30;;
41885;SDS011;27567;43.084;25.616;2022-08-21T06:40:37;13.55;;;9.45;;
41885;SDS011;27567;43.084;25.616;2022-08-21T06:43:21;17.95;;;8.90;;
41885;SDS011;27567;43.084;25.616;2022-08-21T06:46:06;12.40;;;8.93;;
41885;SDS011;27567;43.084;25.616;2022-08-21T06:48:51;19.90;;;9.32;;
41885;SDS011;27567;43.084;25.616;2022-08-21T06:51:34;13.43;;;9.77;;
41885;SDS011;27567;43.084;25.616;2022-08-21T06:54:19;10.52;;;9.13;;
41885;SDS011;27567;43.084;25.616;2022-08-21T06:57:02;14.50;;;9.07;;
41885;SDS011;27567;43.084;25.616;2022-08-21T06:59:47;13.90;;;9.13;;
41885;SDS011;27567;43.084;25.616;2022-08-21T07:02:30;14.10;;;7.82;;
41885;SDS011;27567;43.084;25.616;2022-08-21T07:05:16;12.18;;;8.90;;
41885;SDS011;27567;43.084;25.616;2022-08-21T07:08:01;12.07;;;8.52;;
41885;SDS011;27567;43.084;25.616;2022-08-21T07:10:46;16.17;;;8.32;;
41885;SDS011;27567;43.084;25.616;2022-08-21T07:13:31;15.32;;;8.02;;
41885;SDS011;27567;43.084;25.616;2022-08-21T07:16:16;14.02;;;8.70;;
41885;SDS011;27567;43.084;25.616;2022-08-21T07:19:00;11.23;;;7.95;;
41885;SDS011;27567;43.084;25.616;2022-08-21T07:21:44;13.77;;;7.95;;
41885;SDS011;27567;43.084;25.616;2022-08-21T07:24:29;13.15;;;8.45;;
41885;SDS011;27567;43.084;25.616;2022-08-21T07:27:12;15.95;;;7.43;;
41885;SDS011;27567;43.084;25.616;2022-08-21T07:29:57;11.90;;;7.60;;
41885;SDS011;27567;43.084;25.616;2022-08-21T07:32:41;15.07;;;9.40;;
41885;SDS011;27567;43.084;25.616;2022-08-21T07:35:25;18.27;;;8.00;;
41885;SDS011;27567;43.084;25.616;2022-08-21T07:38:11;10.32;;;8.07;;
41885;SDS011;27567;43.084;25.616;2022-08-21T07:40:55;14.57;;;7.68;;
41885;SDS011;27567;43.084;25.616;2022-08-21T07:43:42;14.70;;;9.07;;
41885;SDS011;27567;43.084;25.616;2022-08-21T07:46:27;13.10;;;7.43;;
41885;SDS011;27567;43.084;25.616;2022-08-21T07:49:11;11.82;;;8.10;;
41885;SDS011;27567;43.084;25.616;2022-08-21T07:51:55;19.02;;;9.02;;
41885;SDS011;27567;43.084;25.616;2022-08-21T07:54:39;17.15;;;9.20;;
41885;SDS011;27567;43.084;25.616;2022-08-21T07:57:23;10.05;;;7.45;;
41885;SDS011;27567;43.084;25.616;2022-08-21T08:00:09;10.55;;;7.10;;
41885;SDS011;27567;43.084;25.616;2022-08-21T08:02:55;15.75;;;8.27;;
41885;SDS011;27567;43.084;25.616;2022-08-21T08:05:39;12.68;;;7.15;;
41885;SDS011;27567;43.084;25.616;2022-08-21T08:08:23;9.38;;;6.40;;
41885;SDS011;27567;43.084;25.616;2022-08-21T08:11:09;11.80;;;8.18;;
41885;SDS011;27567;43.084;25.616;2022-08-21T08:13:54;11.23;;;7.13;;
41885;SDS011;27567;43.084;25.616;2022-08-21T08:16:43;14.73;;;7.15;;
41885;SDS011;27567;43.084;25.616;2022-08-21T08:19:28;11.00;;;6.65;;
41885;SDS011;27567;43.084;25.616;2022-08-21T08:22:13;10.65;;;6.30;;
41885;SDS011;27567;43.084;25.616;2022-08-21T08:25:03;8.65;;;6.22;;
41885;SDS011;27567;43.084;25.616;2022-08-21T08:27:48;9.27;;;6.57;;
41885;SDS011;27567;43.084;25.616;2022-08-21T08:30:33;7.88;;;6.10;;
41885;SDS011;27567;43.084;25.616;2022-08-21T08:33:17;12.60;;;7.30;;
41885;SDS011;27567;43.084;25.616;2022-08-21T08:36:01;12.27;;;6.82;;
41885;SDS011;27567;43.084;25.616;2022-08-21T08:38:46;10.38;;;6.78;;
41885;SDS011;27567;43.084;25.616;2022-08-21T08:41:31;12.85;;;5.93;;
41885;SDS011;27567;43.084;25.616;2022-08-21T08:44:16;9.85;;;6.20;;
41885;SDS011;27567;43.084;25.616;2022-08-21T08:47:00;11.02;;;7.70;;
41885;SDS011;27567;43.084;25.616;2022-08-21T08:49:55;10.55;;;6.38;;
41885;SDS011;27567;43.084;25.616;2022-08-21T08:52:51;12.20;;;6.40;;
41885;SDS011;27567;43.084;25.616;2022-08-21T08:55:43;11.68;;;6.97;;
41885;SDS011;27567;43.084;25.616;2022-08-21T08:58:33;9.52;;;6.00;;
41885;SDS011;27567;43.084;25.616;2022-08-21T09:01:23;12.88;;;5.95;;
41885;SDS011;27567;43.084;25.616;2022-08-21T09:04:06;15.13;;;7.22;;
41885;SDS011;27567;43.084;25.616;2022-08-21T09:07:28;11.20;;;5.75;;
41885;SDS011;27567;43.084;25.616;2022-08-21T09:10:43;10.18;;;6.15;;
41885;SDS011;27567;43.084;25.616;2022-08-21T09:16:58;15.57;;;6.85;;
41885;SDS011;27567;43.084;25.616;2022-08-21T09:25:42;10.45;;;6.40;;
41885;SDS011;27567;43.084;25.616;2022-08-21T09:28:38;11.90;;;6.25;;
41885;SDS011;27567;43.084;25.616;2022-08-21T09:31:26;11.23;;;6.63;;
41885;SDS011;27567;43.084;25.616;2022-08-21T09:34:12;8.00;;;6.68;;
41885;SDS011;27567;43.084;25.616;2022-08-21T09:37:15;12.55;;;7.10;;
41885;SDS011;27567;43.084;25.616;2022-08-21T09:40:02;11.27;;;6.28;;
41885;SDS011;27567;43.084;25.616;2022-08-21T09:46:10;11.30;;;6.15;;
41885;SDS011;27567;43.084;25.616;2022-08-21T09:48:57;11.98;;;5.72;;
41885;SDS011;27567;43.084;25.616;2022-08-21T09:51:49;12.25;;;5.93;;
41885;SDS011;27567;43.084;25.616;2022-08-21T09:54:37;9.48;;;6.03;;
41885;SDS011;27567;43.084;25.616;2022-08-21T09:57:27;10.43;;;5.95;;
41885;SDS011;27567;43.084;25.616;2022-08-21T10:00:25;11.13;;;5.50;;
41885;SDS011;27567;43.084;25.616;2022-08-21T10:03:16;12.63;;;6.03;;
41885;SDS011;27567;43.084;25.616;2022-08-21T10:06:05;10.85;;;5.70;;
41885;SDS011;27567;43.084;25.616;2022-08-21T10:09:03;10.63;;;5.97;;
41885;SDS011;27567;43.084;25.616;2022-08-21T10:15:02;12.60;;;5.63;;
41885;SDS011;27567;43.084;25.616;2022-08-21T10:18:20;10.40;;;5.20;;
41885;SDS011;27567;43.084;25.616;2022-08-21T10:24:25;7.53;;;4.22;;
41885;SDS011;27567;43.084;25.616;2022-08-21T10:27:39;9.57;;;4.55;;
41885;SDS011;27567;43.084;25.616;2022-08-21T10:30:38;12.00;;;5.35;;
41885;SDS011;27567;43.084;25.616;2022-08-21T10:37:07;10.32;;;4.80;;
41885;SDS011;27567;43.084;25.616;2022-08-21T10:49:17;12.55;;;5.65;;
41885;SDS011;27567;43.084;25.616;2022-08-21T10:55:31;7.03;;;4.38;;
41885;SDS011;27567;43.084;25.616;2022-08-21T10:58:23;12.30;;;4.67;;
41885;SDS011;27567;43.084;25.616;2022-08-21T11:01:17;11.93;;;5.00;;
41885;SDS011;27567;43.084;25.616;2022-08-21T11:04:12;7.30;;;4.43;;
41885;SDS011;27567;43.084;25.616;2022-08-21T11:07:07;10.70;;;4.90;;
41885;SDS011;27567;43.084;25.616;2022-08-21T11:10:08;9.13;;;4.40;;
41885;SDS011;27567;43.084;25.616;2022-08-21T11:13:00;10.70;;;4.80;;
41885;SDS011;27567;43.084;25.616;2022-08-21T11:16:26;7.20;;;4.18;;
41885;SDS011;27567;43.084;25.616;2022-08-21T11:19:21;12.52;;;4.53;;
41885;SDS011;27567;43.084;25.616;2022-08-21T11:22:19;13.07;;;4.22;;
41885;SDS011;27567;43.084;25.616;2022-08-21T11:28:35;13.25;;;4.60;;
41885;SDS011;27567;43.084;25.616;2022-08-21T11:37:23;8.63;;;4.43;;
41885;SDS011;27567;43.084;25.616;2022-08-21T11:43:38;9.27;;;4.03;;
41885;SDS011;27567;43.084;25.616;2022-08-21T11:52:35;11.40;;;4.20;;
41885;SDS011;27567;43.084;25.616;2022-08-21T11:55:33;10.63;;;3.50;;
41885;SDS011;27567;43.084;25.616;2022-08-21T11:58:32;10.63;;;4.43;;
41885;SDS011;27567;43.084;25.616;2022-08-21T12:01:24;10.98;;;3.90;;
41885;SDS011;27567;43.084;25.616;2022-08-21T12:04:17;6.13;;;3.40;;
41885;SDS011;27567;43.084;25.616;2022-08-21T12:07:28;14.77;;;4.13;;
41885;SDS011;27567;43.084;25.616;2022-08-21T12:10:30;7.38;;;4.00;;
41885;SDS011;27567;43.084;25.616;2022-08-21T12:13:39;12.18;;;4.65;;
41885;SDS011;27567;43.084;25.616;2022-08-21T12:16:36;5.80;;;3.60;;
41885;SDS011;27567;43.084;25.616;2022-08-21T12:22:11;8.75;;;3.60;;
41885;SDS011;27567;43.084;25.616;2022-08-21T12:25:03;8.40;;;3.95;;
41885;SDS011;27567;43.084;25.616;2022-08-21T12:27:52;11.07;;;4.10;;
41885;SDS011;27567;43.084;25.616;2022-08-21T12:30:45;7.60;;;4.05;;
41885;SDS011;27567;43.084;25.616;2022-08-21T12:36:17;7.82;;;4.20;;
41885;SDS011;27567;43.084;25.616;2022-08-21T12:39:05;12.80;;;4.70;;
41885;SDS011;27567;43.084;25.616;2022-08-21T12:42:11;21.58;;;5.30;;
41885;SDS011;27567;43.084;25.616;2022-08-21T12:45:11;10.80;;;5.32;;
41885;SDS011;27567;43.084;25.616;2022-08-21T12:48:18;10.88;;;5.43;;
41885;SDS011;27567;43.084;25.616;2022-08-21T12:51:10;10.82;;;5.15;;
41885;SDS011;27567;43.084;25.616;2022-08-21T12:53:57;15.30;;;4.97;;
41885;SDS011;27567;43.084;25.616;2022-08-21T12:56:43;12.35;;;5.20;;
41885;SDS011;27567;43.084;25.616;2022-08-21T12:59:38;13.00;;;5.35;;
41885;SDS011;27567;43.084;25.616;2022-08-21T13:02:28;14.70;;;4.88;;
41885;SDS011;27567;43.084;25.616;2022-08-21T13:05:20;13.10;;;4.82;;
41885;SDS011;27567;43.084;25.616;2022-08-21T13:08:12;11.88;;;4.97;;
41885;SDS011;27567;43.084;25.616;2022-08-21T13:10:59;7.78;;;4.75;;
41885;SDS011;27567;43.084;25.616;2022-08-21T13:13:51;7.85;;;4.53;;
41885;SDS011;27567;43.084;25.616;2022-08-21T13:16:36;13.07;;;5.93;;
41885;SDS011;27567;43.084;25.616;2022-08-21T13:19:21;11.55;;;5.13;;
41885;SDS011;27567;43.084;25.616;2022-08-21T13:22:11;11.50;;;5.53;;
41885;SDS011;27567;43.084;25.616;2022-08-21T13:24:57;9.18;;;5.00;;
41885;SDS011;27567;43.084;25.616;2022-08-21T13:27:42;12.80;;;5.72;;
41885;SDS011;27567;43.084;25.616;2022-08-21T13:30:28;14.10;;;6.28;;
41885;SDS011;27567;43.084;25.616;2022-08-21T13:33:14;13.07;;;5.63;;
41885;SDS011;27567;43.084;25.616;2022-08-21T13:36:14;10.77;;;5.55;;
41885;SDS011;27567;43.084;25.616;2022-08-21T13:39:14;10.10;;;5.65;;
41885;SDS011;27567;43.084;25.616;2022-08-21T13:42:03;13.15;;;5.53;;
41885;SDS011;27567;43.084;25.616;2022-08-21T13:44:52;12.40;;;5.82;;
41885;SDS011;27567;43.084;25.616;2022-08-21T13:47:37;10.90;;;5.43;;
41885;SDS011;27567;43.084;25.616;2022-08-21T13:50:23;17.67;;;5.97;;
41885;SDS011;27567;43.084;25.616;2022-08-21T13:53:19;14.13;;;5.32;;
41885;SDS011;27567;43.084;25.616;2022-08-21T13:56:31;12.65;;;5.45;;
41885;SDS011;27567;43.084;25.616;2022-08-21T13:59:30;10.18;;;4.82;;
41885;SDS011;27567;43.084;25.616;2022-08-21T14:02:21;10.95;;;5.10;;
41885;SDS011;27567;43.084;25.616;2022-08-21T14:05:08;13.52;;;6.78;;
41885;SDS011;27567;43.084;25.616;2022-08-21T14:08:27;10.95;;;6.60;;
41885;SDS011;27567;43.084;25.616;2022-08-21T14:11:17;13.30;;;7.00;;
41885;SDS011;27567;43.084;25.616;2022-08-21T14:14:04;12.60;;;6.95;;
41885;SDS011;27567;43.084;25.616;2022-08-21T14:16:57;12.70;;;7.55;;
41885;SDS011;27567;43.084;25.616;2022-08-21T14:19:47;19.98;;;8.10;;
41885;SDS011;27567;43.084;25.616;2022-08-21T14:28:57;11.88;;;6.38;;
41885;SDS011;27567;43.084;25.616;2022-08-21T14:31:21;12.38;;;5.90;;
41885;SDS011;27567;43.084;25.616;2022-08-21T14:34:14;7.65;;;4.85;;
41885;SDS011;27567;43.084;25.616;2022-08-21T14:37:00;8.63;;;4.82;;
41885;SDS011;27567;43.084;25.616;2022-08-21T14:39:44;9.60;;;5.82;;
41885;SDS011;27567;43.084;25.616;2022-08-21T14:42:29;13.65;;;5.60;;
41885;SDS011;27567;43.084;25.616;2022-08-21T14:45:15;9.73;;;5.00;;
41885;SDS011;27567;43.084;25.616;2022-08-21T14:48:06;11.43;;;6.10;;
41885;SDS011;27567;43.084;25.616;2022-08-21T14:50:52;12.05;;;6.65;;
41885;SDS011;27567;43.084;25.616;2022-08-21T14:53:36;17.27;;;6.32;;
41885;SDS011;27567;43.084;25.616;2022-08-21T14:56:20;14.80;;;7.10;;
41885;SDS011;27567;43.084;25.616;2022-08-21T14:59:06;9.55;;;5.03;;
41885;SDS011;27567;43.084;25.616;2022-08-21T15:01:51;12.07;;;6.78;;
41885;SDS011;27567;43.084;25.616;2022-08-21T15:04:36;10.82;;;6.55;;
41885;SDS011;27567;43.084;25.616;2022-08-21T15:07:20;9.82;;;6.18;;
41885;SDS011;27567;43.084;25.616;2022-08-21T15:10:05;11.77;;;6.00;;
41885;SDS011;27567;43.084;25.616;2022-08-21T15:12:50;11.27;;;6.15;;
41885;SDS011;27567;43.084;25.616;2022-08-21T15:15:35;9.98;;;5.75;;
41885;SDS011;27567;43.084;25.616;2022-08-21T15:18:24;10.65;;;6.57;;
41885;SDS011;27567;43.084;25.616;2022-08-21T15:21:13;13.13;;;5.22;;
41885;SDS011;27567;43.084;25.616;2022-08-21T15:23:57;14.95;;;7.05;;
41885;SDS011;27567;43.084;25.616;2022-08-21T15:26:41;17.25;;;9.73;;
41885;SDS011;27567;43.084;25.616;2022-08-21T15:29:26;14.52;;;10.00;;
41885;SDS011;27567;43.084;25.616;2022-08-21T15:32:24;22.25;;;10.35;;
41885;SDS011;27567;43.084;25.616;2022-08-21T15:35:11;16.58;;;10.32;;
41885;SDS011;27567;43.084;25.616;2022-08-21T15:37:56;19.40;;;10.43;;
41885;SDS011;27567;43.084;25.616;2022-08-21T15:40:41;15.93;;;10.05;;
41885;SDS011;27567;43.084;25.616;2022-08-21T15:43:28;14.25;;;9.30;;
41885;SDS011;27567;43.084;25.616;2022-08-21T15:46:15;19.38;;;10.43;;
41885;SDS011;27567;43.084;25.616;2022-08-21T15:49:01;12.55;;;8.10;;
41885;SDS011;27567;43.084;25.616;2022-08-21T15:51:45;15.70;;;7.80;;
41885;SDS011;27567;43.084;25.616;2022-08-21T15:54:28;18.95;;;9.13;;
41885;SDS011;27567;43.084;25.616;2022-08-21T15:57:14;19.02;;;10.05;;
41885;SDS011;27567;43.084;25.616;2022-08-21T16:00:03;16.00;;;9.95;;
41885;SDS011;27567;43.084;25.616;2022-08-21T16:02:57;17.80;;;9.65;;
41885;SDS011;27567;43.084;25.616;2022-08-21T16:05:46;19.83;;;10.35;;
41885;SDS011;27567;43.084;25.616;2022-08-21T16:08:31;15.13;;;10.13;;
41885;SDS011;27567;43.084;25.616;2022-08-21T16:11:15;15.18;;;8.27;;
41885;SDS011;27567;43.084;25.616;2022-08-21T16:14:00;16.05;;;9.60;;
41885;SDS011;27567;43.084;25.616;2022-08-21T16:16:44;13.75;;;8.45;;
41885;SDS011;27567;43.084;25.616;2022-08-21T16:19:29;13.65;;;8.50;;
41885;SDS011;27567;43.084;25.616;2022-08-21T16:22:13;13.02;;;8.80;;
41885;SDS011;27567;43.084;25.616;2022-08-21T16:24:57;16.98;;;9.35;;
41885;SDS011;27567;43.084;25.616;2022-08-21T16:27:42;16.13;;;10.82;;
41885;SDS011;27567;43.084;25.616;2022-08-21T16:30:29;16.23;;;11.07;;
41885;SDS011;27567;43.084;25.616;2022-08-21T16:33:30;15.98;;;12.20;;
41885;SDS011;27567;43.084;25.616;2022-08-21T16:36:18;18.83;;;12.18;;
41885;SDS011;27567;43.084;25.616;2022-08-21T16:39:03;16.83;;;11.73;;
41885;SDS011;27567;43.084;25.616;2022-08-21T16:41:47;17.83;;;11.93;;
41885;SDS011;27567;43.084;25.616;2022-08-21T16:44:33;18.10;;;13.85;;
41885;SDS011;27567;43.084;25.616;2022-08-21T16:47:18;20.98;;;14.55;;
41885;SDS011;27567;43.084;25.616;2022-08-21T16:50:02;22.10;;;13.80;;
41885;SDS011;27567;43.084;25.616;2022-08-21T16:52:49;17.25;;;11.82;;
41885;SDS011;27567;43.084;25.616;2022-08-21T16:55:34;17.08;;;11.48;;
41885;SDS011;27567;43.084;25.616;2022-08-21T16:58:22;16.15;;;10.93;;
41885;SDS011;27567;43.084;25.616;2022-08-21T17:01:09;14.57;;;8.98;;
41885;SDS011;27567;43.084;25.616;2022-08-21T17:03:55;13.45;;;8.88;;
41885;SDS011;27567;43.084;25.616;2022-08-21T17:06:39;12.80;;;8.10;;
41885;SDS011;27567;43.084;25.616;2022-08-21T17:09:23;13.70;;;8.63;;
41885;SDS011;27567;43.084;25.616;2022-08-21T17:12:07;14.70;;;7.35;;
41885;SDS011;27567;43.084;25.616;2022-08-21T17:14:52;13.75;;;7.57;;
41885;SDS011;27567;43.084;25.616;2022-08-21T17:17:35;17.42;;;7.97;;
41885;SDS011;27567;43.084;25.616;2022-08-21T17:20:20;12.52;;;8.05;;
41885;SDS011;27567;43.084;25.616;2022-08-21T17:23:05;14.57;;;9.23;;